sensor_id;sensor_type;location;lat;lon;timestamp;temperature;humidity
25688;DHT22;17407;51.120;3.702;2023-03-20T00:01:19;8.10;99.90
25688;DHT22;17407;51.120;3.702;2023-03-20T00:03:46;8.10;99.90
25688;DHT22;17407;51.120;3.702;2023-03-20T00:06:23;8.10;99.90
25688;DHT22;17407;51.120;3.702;2023-03-20T00:08:50;8.00;99.90
25688;DHT22;17407;51.120;3.702;2023-03-20T00:11:40;7.90;99.90
25688;DHT22;17407;51.120;3.702;2023-03-20T00:14:05;7.90;99.90
25688;DHT22;17407;51.120;3.702;2023-03-20T00:16:34;8.00;99.90
25688;DHT22;17407;51.120;3.702;2023-03-20T00:19:00;8.00;99.90
25688;DHT22;17407;51.120;3.702;2023-03-20T00:21:27;7.90;99.90
25688;DHT22;17407;51.120;3.702;2023-03-20T00:23:54;7.80;99.90
25688;DHT22;17407;51.120;3.702;2023-03-20T00:26:26;7.70;99.90
25688;DHT22;17407;51.120;3.702;2023-03-20T00:28:52;7.60;99.90
25688;DHT22;17407;51.120;3.702;2023-03-20T00:31:36;7.60;99.90
25688;DHT22;17407;51.120;3.702;2023-03-20T00:34:05;7.60;99.90
25688;DHT22;17407;51.120;3.702;2023-03-20T00:36:31;7.60;99.90
25688;DHT22;17407;51.120;3.702;2023-03-20T00:38:57;7.70;99.90
25688;DHT22;17407;51.120;3.702;2023-03-20T00:41:24;7.70;99.90
25688;DHT22;17407;51.120;3.702;2023-03-20T00:43:54;7.60;99.90
25688;DHT22;17407;51.120;3.702;2023-03-20T00:46:20;7.70;99.90
25688;DHT22;17407;51.120;3.702;2023-03-20T00:48:46;7.80;99.90
25688;DHT22;17407;51.120;3.702;2023-03-20T00:51:12;7.70;99.90
25688;DHT22;17407;51.120;3.702;2023-03-20T00:53:38;7.70;99.90
25688;DHT22;17407;51.120;3.702;2023-03-20T00:56:04;7.70;99.90
25688;DHT22;17407;51.120;3.702;2023-03-20T00:58:30;7.70;99.90
25688;DHT22;17407;51.120;3.702;2023-03-20T01:00:56;7.80;99.90
25688;DHT22;17407;51.120;3.702;2023-03-20T01:03:24;7.80;99.90
25688;DHT22;17407;51.120;3.702;2023-03-20T01:05:51;7.80;99.90
25688;DHT22;17407;51.120;3.702;2023-03-20T01:10:43;7.80;99.90
25688;DHT22;17407;51.120;3.702;2023-03-20T01:13:18;7.80;99.90
25688;DHT22;17407;51.120;3.702;2023-03-20T01:15:44;7.60;99.90
25688;DHT22;17407;51.120;3.702;2023-03-20T01:18:13;7.60;99.90
25688;DHT22;17407;51.120;3.702;2023-03-20T01:20:39;7.60;99.90
25688;DHT22;17407;51.120;3.702;2023-03-20T01:23:05;7.50;99.90
25688;DHT22;17407;51.120;3.702;2023-03-20T01:25:31;7.50;99.90
25688;DHT22;17407;51.120;3.702;2023-03-20T01:27:56;7.60;99.90
25688;DHT22;17407;51.120;3.702;2023-03-20T01:30:25;7.70;99.90
25688;DHT22;17407;51.120;3.702;2023-03-20T01:32:51;7.60;99.90
25688;DHT22;17407;51.120;3.702;2023-03-20T01:35:20;7.50;99.90
25688;DHT22;17407;51.120;3.702;2023-03-20T01:37:47;7.70;99.90
25688;DHT22;17407;51.120;3.702;2023-03-20T01:42:46;7.60;99.90
25688;DHT22;17407;51.120;3.702;2023-03-20T01:45:18;7.50;99.90
25688;DHT22;17407;51.120;3.702;2023-03-20T01:47:45;7.50;99.90
25688;DHT22;17407;51.120;3.702;2023-03-20T01:50:30;7.50;99.90
25688;DHT22;17407;51.120;3.702;2023-03-20T01:55:33;7.70;99.90
25688;DHT22;17407;51.120;3.702;2023-03-20T01:58:07;7.70;99.90
25688;DHT22;17407;51.120;3.702;2023-03-20T02:00:35;7.70;99.90
25688;DHT22;17407;51.120;3.702;2023-03-20T02:03:03;7.80;99.90
25688;DHT22;17407;51.120;3.702;2023-03-20T02:05:29;7.70;99.90
25688;DHT22;17407;51.120;3.702;2023-03-20T02:08:05;7.70;99.90
25688;DHT22;17407;51.120;3.702;2023-03-20T02:10:33;7.70;99.90
25688;DHT22;17407;51.120;3.702;2023-03-20T02:13:00;7.60;99.90
25688;DHT22;17407;51.120;3.702;2023-03-20T02:15:29;7.40;99.90
25688;DHT22;17407;51.120;3.702;2023-03-20T02:17:55;7.40;99.90
25688;DHT22;17407;51.120;3.702;2023-03-20T02:20:37;7.50;99.90
25688;DHT22;17407;51.120;3.702;2023-03-20T02:23:35;7.60;99.90
25688;DHT22;17407;51.120;3.702;2023-03-20T02:36:47;7.60;99.90
25688;DHT22;17407;51.120;3.702;2023-03-20T02:42:12;7.50;99.90
25688;DHT22;17407;51.120;3.702;2023-03-20T02:47:25;7.50;99.90
25688;DHT22;17407;51.120;3.702;2023-03-20T02:57:56;7.70;99.90
25688;DHT22;17407;51.120;3.702;2023-03-20T03:00:55;7.80;99.90
25688;DHT22;17407;51.120;3.702;2023-03-20T03:03:23;7.70;99.90
25688;DHT22;17407;51.120;3.702;2023-03-20T03:05:54;7.60;99.90
25688;DHT22;17407;51.120;3.702;2023-03-20T03:08:24;7.60;99.90
25688;DHT22;17407;51.120;3.702;2023-03-20T03:11:01;7.50;99.90
25688;DHT22;17407;51.120;3.702;2023-03-20T03:13:30;7.70;99.90
25688;DHT22;17407;51.120;3.702;2023-03-20T03:16:00;7.60;99.90
25688;DHT22;17407;51.120;3.702;2023-03-20T03:18:29;7.60;99.90
25688;DHT22;17407;51.120;3.702;2023-03-20T03:20:58;7.60;99.90
25688;DHT22;17407;51.120;3.702;2023-03-20T03:23:35;7.60;99.90
25688;DHT22;17407;51.120;3.702;2023-03-20T03:26:06;7.80;99.90
25688;DHT22;17407;51.120;3.702;2023-03-20T03:31:05;7.70;99.90
25688;DHT22;17407;51.120;3.702;2023-03-20T03:33:33;7.60;99.90
25688;DHT22;17407;51.120;3.702;2023-03-20T03:36:12;7.70;99.90
25688;DHT22;17407;51.120;3.702;2023-03-20T03:44:19;7.70;99.90
25688;DHT22;17407;51.120;3.702;2023-03-20T03:46:53;7.60;99.90
25688;DHT22;17407;51.120;3.702;2023-03-20T03:49:27;7.60;99.90
25688;DHT22;17407;51.120;3.702;2023-03-20T03:51:59;7.80;99.90
25688;DHT22;17407;51.120;3.702;2023-03-20T03:54:31;7.60;99.90
25688;DHT22;17407;51.120;3.702;2023-03-20T03:57:00;7.60;99.90
25688;DHT22;17407;51.120;3.702;2023-03-20T03:59:32;7.70;99.90
25688;DHT22;17407;51.120;3.702;2023-03-20T04:02:01;7.70;99.90
25688;DHT22;17407;51.120;3.702;2023-03-20T04:04:29;7.60;99.90
25688;DHT22;17407;51.120;3.702;2023-03-20T04:06:56;7.60;99.90
25688;DHT22;17407;51.120;3.702;2023-03-20T04:09:22;7.60;99.90
25688;DHT22;17407;51.120;3.702;2023-03-20T04:11:50;7.70;99.90
25688;DHT22;17407;51.120;3.702;2023-03-20T04:14:16;7.80;99.90
25688;DHT22;17407;51.120;3.702;2023-03-20T04:16:42;7.60;99.90
25688;DHT22;17407;51.120;3.702;2023-03-20T04:19:08;7.60;99.90
25688;DHT22;17407;51.120;3.702;2023-03-20T04:21:34;7.60;99.90
25688;DHT22;17407;51.120;3.702;2023-03-20T04:24:00;7.70;99.90
25688;DHT22;17407;51.120;3.702;2023-03-20T04:26:26;7.80;99.90
25688;DHT22;17407;51.120;3.702;2023-03-20T04:28:52;7.90;99.90
25688;DHT22;17407;51.120;3.702;2023-03-20T04:31:18;7.90;99.90
25688;DHT22;17407;51.120;3.702;2023-03-20T04:33:44;7.90;99.90
25688;DHT22;17407;51.120;3.702;2023-03-20T04:36:10;7.90;99.90
25688;DHT22;17407;51.120;3.702;2023-03-20T04:38:37;7.90;99.90
25688;DHT22;17407;51.120;3.702;2023-03-20T04:41:03;7.90;99.90
25688;DHT22;17407;51.120;3.702;2023-03-20T04:43:29;7.70;99.90
25688;DHT22;17407;51.120;3.702;2023-03-20T04:45:55;7.60;99.90
25688;DHT22;17407;51.120;3.702;2023-03-20T04:48:20;7.70;99.90
25688;DHT22;17407;51.120;3.702;2023-03-20T04:50:46;7.80;99.90
25688;DHT22;17407;51.120;3.702;2023-03-20T04:53:13;7.90;99.90
25688;DHT22;17407;51.120;3.702;2023-03-20T04:55:40;7.80;99.90
25688;DHT22;17407;51.120;3.702;2023-03-20T04:58:05;7.80;99.90
25688;DHT22;17407;51.120;3.702;2023-03-20T05:00:31;7.90;99.90
25688;DHT22;17407;51.120;3.702;2023-03-20T05:02:57;7.90;99.90
25688;DHT22;17407;51.120;3.702;2023-03-20T05:05:23;7.90;99.90
25688;DHT22;17407;51.120;3.702;2023-03-20T05:07:49;7.90;99.90
25688;DHT22;17407;51.120;3.702;2023-03-20T05:10:16;7.80;99.90
25688;DHT22;17407;51.120;3.702;2023-03-20T05:12:42;7.80;99.90
25688;DHT22;17407;51.120;3.702;2023-03-20T05:15:08;7.90;99.90
25688;DHT22;17407;51.120;3.702;2023-03-20T05:17:34;7.80;99.90
25688;DHT22;17407;51.120;3.702;2023-03-20T05:19:59;7.80;99.90
25688;DHT22;17407;51.120;3.702;2023-03-20T05:22:25;7.90;99.90
25688;DHT22;17407;51.120;3.702;2023-03-20T05:24:51;7.80;99.90
25688;DHT22;17407;51.120;3.702;2023-03-20T05:27:17;7.90;99.90
25688;DHT22;17407;51.120;3.702;2023-03-20T05:29:43;7.90;99.90
25688;DHT22;17407;51.120;3.702;2023-03-20T05:32:09;8.10;99.90
25688;DHT22;17407;51.120;3.702;2023-03-20T05:34:34;7.90;99.90
25688;DHT22;17407;51.120;3.702;2023-03-20T05:37:00;7.90;99.90
25688;DHT22;17407;51.120;3.702;2023-03-20T05:39:26;7.90;99.90
25688;DHT22;17407;51.120;3.702;2023-03-20T05:41:51;7.80;99.90
25688;DHT22;17407;51.120;3.702;2023-03-20T05:44:17;7.80;99.90
25688;DHT22;17407;51.120;3.702;2023-03-20T05:46:42;8.00;99.90
25688;DHT22;17407;51.120;3.702;2023-03-20T05:49:08;8.10;99.90
25688;DHT22;17407;51.120;3.702;2023-03-20T05:51:34;7.90;99.90
25688;DHT22;17407;51.120;3.702;2023-03-20T05:54:00;7.90;99.90
25688;DHT22;17407;51.120;3.702;2023-03-20T05:56:25;7.80;99.90
25688;DHT22;17407;51.120;3.702;2023-03-20T05:58:52;7.80;99.90
25688;DHT22;17407;51.120;3.702;2023-03-20T06:01:17;7.70;99.90
25688;DHT22;17407;51.120;3.702;2023-03-20T06:03:46;7.70;99.90
25688;DHT22;17407;51.120;3.702;2023-03-20T06:06:13;7.80;99.90
25688;DHT22;17407;51.120;3.702;2023-03-20T06:08:39;7.80;99.90
25688;DHT22;17407;51.120;3.702;2023-03-20T06:11:05;8.00;99.90
25688;DHT22;17407;51.120;3.702;2023-03-20T06:13:31;7.90;99.90
25688;DHT22;17407;51.120;3.702;2023-03-20T06:15:57;7.60;99.90
25688;DHT22;17407;51.120;3.702;2023-03-20T06:18:22;7.70;99.90
25688;DHT22;17407;51.120;3.702;2023-03-20T06:20:56;7.90;99.90
25688;DHT22;17407;51.120;3.702;2023-03-20T06:23:22;7.90;99.90
25688;DHT22;17407;51.120;3.702;2023-03-20T06:25:48;7.90;99.90
25688;DHT22;17407;51.120;3.702;2023-03-20T06:28:14;7.90;99.90
25688;DHT22;17407;51.120;3.702;2023-03-20T06:30:41;7.90;99.90
25688;DHT22;17407;51.120;3.702;2023-03-20T06:33:07;7.90;99.90
25688;DHT22;17407;51.120;3.702;2023-03-20T06:35:33;8.00;99.90
25688;DHT22;17407;51.120;3.702;2023-03-20T06:37:59;8.00;99.90
25688;DHT22;17407;51.120;3.702;2023-03-20T06:40:25;8.10;99.90
25688;DHT22;17407;51.120;3.702;2023-03-20T06:42:52;8.10;99.90
25688;DHT22;17407;51.120;3.702;2023-03-20T06:45:18;8.10;99.90
25688;DHT22;17407;51.120;3.702;2023-03-20T06:47:43;8.00;99.90
25688;DHT22;17407;51.120;3.702;2023-03-20T06:50:10;8.00;99.90
25688;DHT22;17407;51.120;3.702;2023-03-20T06:52:36;8.10;99.90
25688;DHT22;17407;51.120;3.702;2023-03-20T06:55:02;7.90;99.90
25688;DHT22;17407;51.120;3.702;2023-03-20T06:57:28;7.90;99.90
25688;DHT22;17407;51.120;3.702;2023-03-20T06:59:53;7.90;99.90
25688;DHT22;17407;51.120;3.702;2023-03-20T07:02:19;8.10;99.90
25688;DHT22;17407;51.120;3.702;2023-03-20T07:04:45;8.10;99.90
25688;DHT22;17407;51.120;3.702;2023-03-20T07:07:11;8.10;99.90
25688;DHT22;17407;51.120;3.702;2023-03-20T07:09:37;7.90;99.90
25688;DHT22;17407;51.120;3.702;2023-03-20T07:12:02;7.90;99.90
25688;DHT22;17407;51.120;3.702;2023-03-20T07:14:29;7.90;99.90
25688;DHT22;17407;51.120;3.702;2023-03-20T07:16:55;8.00;99.90
25688;DHT22;17407;51.120;3.702;2023-03-20T07:19:21;8.10;99.90
25688;DHT22;17407;51.120;3.702;2023-03-20T07:21:47;8.20;99.90
25688;DHT22;17407;51.120;3.702;2023-03-20T07:24:13;8.20;99.90
25688;DHT22;17407;51.120;3.702;2023-03-20T07:26:39;8.10;99.90
25688;DHT22;17407;51.120;3.702;2023-03-20T07:29:06;8.10;99.90
25688;DHT22;17407;51.120;3.702;2023-03-20T07:31:32;8.30;99.90
25688;DHT22;17407;51.120;3.702;2023-03-20T07:33:57;8.30;99.90
25688;DHT22;17407;51.120;3.702;2023-03-20T07:36:24;8.40;99.90
25688;DHT22;17407;51.120;3.702;2023-03-20T07:38:49;8.40;99.90
25688;DHT22;17407;51.120;3.702;2023-03-20T07:41:15;8.40;99.90
25688;DHT22;17407;51.120;3.702;2023-03-20T07:43:41;8.40;99.90
25688;DHT22;17407;51.120;3.702;2023-03-20T07:46:08;8.40;99.90
25688;DHT22;17407;51.120;3.702;2023-03-20T07:48:36;8.60;99.90
25688;DHT22;17407;51.120;3.702;2023-03-20T07:51:02;8.50;99.90
25688;DHT22;17407;51.120;3.702;2023-03-20T07:53:27;8.40;99.90
25688;DHT22;17407;51.120;3.702;2023-03-20T07:55:53;8.40;99.90
25688;DHT22;17407;51.120;3.702;2023-03-20T07:58:19;8.40;99.90
25688;DHT22;17407;51.120;3.702;2023-03-20T08:00:45;8.50;99.90
25688;DHT22;17407;51.120;3.702;2023-03-20T08:03:10;8.60;99.90
25688;DHT22;17407;51.120;3.702;2023-03-20T08:05:36;8.70;99.90
25688;DHT22;17407;51.120;3.702;2023-03-20T08:08:02;8.60;99.90
25688;DHT22;17407;51.120;3.702;2023-03-20T08:10:28;8.60;99.90
25688;DHT22;17407;51.120;3.702;2023-03-20T08:12:53;8.80;99.90
25688;DHT22;17407;51.120;3.702;2023-03-20T08:15:20;8.70;99.90
25688;DHT22;17407;51.120;3.702;2023-03-20T08:17:46;8.70;99.90
25688;DHT22;17407;51.120;3.702;2023-03-20T08:20:13;8.80;99.90
25688;DHT22;17407;51.120;3.702;2023-03-20T08:22:39;8.70;99.90
25688;DHT22;17407;51.120;3.702;2023-03-20T08:25:06;8.80;99.90
25688;DHT22;17407;51.120;3.702;2023-03-20T08:27:33;8.80;99.90
25688;DHT22;17407;51.120;3.702;2023-03-20T08:29:59;8.80;99.90
25688;DHT22;17407;51.120;3.702;2023-03-20T08:32:25;8.90;99.90
25688;DHT22;17407;51.120;3.702;2023-03-20T08:34:51;9.00;99.90
25688;DHT22;17407;51.120;3.702;2023-03-20T08:37:19;9.10;99.90
25688;DHT22;17407;51.120;3.702;2023-03-20T08:39:45;9.20;99.90
25688;DHT22;17407;51.120;3.702;2023-03-20T08:42:11;9.00;99.90
25688;DHT22;17407;51.120;3.702;2023-03-20T08:44:36;9.20;99.90
25688;DHT22;17407;51.120;3.702;2023-03-20T08:47:02;9.30;99.90
25688;DHT22;17407;51.120;3.702;2023-03-20T08:49:30;9.10;99.90
25688;DHT22;17407;51.120;3.702;2023-03-20T08:51:56;9.30;99.90
25688;DHT22;17407;51.120;3.702;2023-03-20T08:54:21;9.20;99.90
25688;DHT22;17407;51.120;3.702;2023-03-20T08:56:47;9.10;99.90
25688;DHT22;17407;51.120;3.702;2023-03-20T08:59:13;9.20;99.90
25688;DHT22;17407;51.120;3.702;2023-03-20T09:01:39;9.40;99.90
25688;DHT22;17407;51.120;3.702;2023-03-20T09:04:04;9.60;99.90
25688;DHT22;17407;51.120;3.702;2023-03-20T09:06:30;9.50;99.90
25688;DHT22;17407;51.120;3.702;2023-03-20T09:08:57;9.70;99.90
25688;DHT22;17407;51.120;3.702;2023-03-20T09:11:23;9.80;99.90
25688;DHT22;17407;51.120;3.702;2023-03-20T09:13:48;9.90;99.90
25688;DHT22;17407;51.120;3.702;2023-03-20T09:16:14;9.90;99.90
25688;DHT22;17407;51.120;3.702;2023-03-20T09:18:40;9.80;99.90
25688;DHT22;17407;51.120;3.702;2023-03-20T09:21:06;9.90;99.90
25688;DHT22;17407;51.120;3.702;2023-03-20T09:23:32;9.80;99.90
25688;DHT22;17407;51.120;3.702;2023-03-20T09:25:58;9.90;99.90
25688;DHT22;17407;51.120;3.702;2023-03-20T09:28:24;10.00;99.90
25688;DHT22;17407;51.120;3.702;2023-03-20T09:30:54;10.00;99.90
25688;DHT22;17407;51.120;3.702;2023-03-20T09:33:20;10.10;99.90
25688;DHT22;17407;51.120;3.702;2023-03-20T09:35:46;10.10;99.90
25688;DHT22;17407;51.120;3.702;2023-03-20T09:38:12;10.20;99.90
25688;DHT22;17407;51.120;3.702;2023-03-20T09:43:44;10.50;99.90
25688;DHT22;17407;51.120;3.702;2023-03-20T09:49:11;10.60;99.90
25688;DHT22;17407;51.120;3.702;2023-03-20T09:54:09;10.30;99.90
25688;DHT22;17407;51.120;3.702;2023-03-20T09:56:37;10.30;99.90
25688;DHT22;17407;51.120;3.702;2023-03-20T09:59:04;10.40;99.90
25688;DHT22;17407;51.120;3.702;2023-03-20T10:01:45;10.30;99.90
25688;DHT22;17407;51.120;3.702;2023-03-20T10:04:12;10.30;99.90
25688;DHT22;17407;51.120;3.702;2023-03-20T10:06:37;10.40;99.90
25688;DHT22;17407;51.120;3.702;2023-03-20T10:09:19;10.40;99.90
25688;DHT22;17407;51.120;3.702;2023-03-20T10:17:57;10.60;99.90
25688;DHT22;17407;51.120;3.702;2023-03-20T10:20:35;10.50;99.90
25688;DHT22;17407;51.120;3.702;2023-03-20T10:23:05;10.50;99.90
25688;DHT22;17407;51.120;3.702;2023-03-20T10:25:34;10.70;99.90
25688;DHT22;17407;51.120;3.702;2023-03-20T10:28:12;10.70;99.90
25688;DHT22;17407;51.120;3.702;2023-03-20T10:30:48;10.90;99.90
25688;DHT22;17407;51.120;3.702;2023-03-20T10:39:30;11.10;99.90
25688;DHT22;17407;51.120;3.702;2023-03-20T10:41:59;11.20;99.90
25688;DHT22;17407;51.120;3.702;2023-03-20T10:44:39;11.40;99.90
25688;DHT22;17407;51.120;3.702;2023-03-20T10:47:09;11.50;99.90
25688;DHT22;17407;51.120;3.702;2023-03-20T10:49:44;11.70;99.90
25688;DHT22;17407;51.120;3.702;2023-03-20T10:52:15;12.10;99.90
25688;DHT22;17407;51.120;3.702;2023-03-20T10:54:51;12.10;99.90
25688;DHT22;17407;51.120;3.702;2023-03-20T10:57:26;12.20;99.90
25688;DHT22;17407;51.120;3.702;2023-03-20T10:59:57;12.20;99.90
25688;DHT22;17407;51.120;3.702;2023-03-20T11:02:29;12.30;99.90
25688;DHT22;17407;51.120;3.702;2023-03-20T11:04:59;12.40;99.90
25688;DHT22;17407;51.120;3.702;2023-03-20T11:07:27;12.50;99.90
25688;DHT22;17407;51.120;3.702;2023-03-20T11:12:39;12.50;99.90
25688;DHT22;17407;51.120;3.702;2023-03-20T11:15:33;12.60;99.90
25688;DHT22;17407;51.120;3.702;2023-03-20T11:18:11;12.50;99.90
25688;DHT22;17407;51.120;3.702;2023-03-20T11:20:53;12.60;99.90
25688;DHT22;17407;51.120;3.702;2023-03-20T11:23:23;12.70;99.90
25688;DHT22;17407;51.120;3.702;2023-03-20T11:25:58;12.70;99.90
25688;DHT22;17407;51.120;3.702;2023-03-20T11:28:41;12.70;99.90
25688;DHT22;17407;51.120;3.702;2023-03-20T11:33:44;12.60;99.90
25688;DHT22;17407;51.120;3.702;2023-03-20T11:36:22;12.70;99.90
25688;DHT22;17407;51.120;3.702;2023-03-20T11:38:50;13.00;99.90
25688;DHT22;17407;51.120;3.702;2023-03-20T11:41:27;13.20;99.90
25688;DHT22;17407;51.120;3.702;2023-03-20T11:43:53;13.10;99.90
25688;DHT22;17407;51.120;3.702;2023-03-20T11:46:20;13.20;99.90
25688;DHT22;17407;51.120;3.702;2023-03-20T11:49:18;13.20;99.90
25688;DHT22;17407;51.120;3.702;2023-03-20T11:51:45;13.10;99.90
25688;DHT22;17407;51.120;3.702;2023-03-20T11:54:17;13.00;99.90
25688;DHT22;17407;51.120;3.702;2023-03-20T11:57:00;13.10;99.90
25688;DHT22;17407;51.120;3.702;2023-03-20T11:59:34;13.10;99.90
25688;DHT22;17407;51.120;3.702;2023-03-20T12:02:00;13.00;99.90
25688;DHT22;17407;51.120;3.702;2023-03-20T12:04:37;12.90;99.90
25688;DHT22;17407;51.120;3.702;2023-03-20T12:12:38;12.60;99.90
25688;DHT22;17407;51.120;3.702;2023-03-20T12:23:12;12.60;99.90
25688;DHT22;17407;51.120;3.702;2023-03-20T12:31:31;12.60;99.90
25688;DHT22;17407;51.120;3.702;2023-03-20T12:34:25;12.60;99.90
25688;DHT22;17407;51.120;3.702;2023-03-20T12:36:54;12.80;99.90
25688;DHT22;17407;51.120;3.702;2023-03-20T12:39:24;12.80;99.90
25688;DHT22;17407;51.120;3.702;2023-03-20T12:47:37;12.90;99.90
25688;DHT22;17407;51.120;3.702;2023-03-20T13:03:51;12.80;99.90
25688;DHT22;17407;51.120;3.702;2023-03-20T13:06:39;12.90;99.90
25688;DHT22;17407;51.120;3.702;2023-03-20T13:15:04;12.90;99.90
25688;DHT22;17407;51.120;3.702;2023-03-20T13:20:55;12.90;99.90
25688;DHT22;17407;51.120;3.702;2023-03-20T13:28:54;12.70;99.90
25688;DHT22;17407;51.120;3.702;2023-03-20T13:35:15;12.60;99.90
25688;DHT22;17407;51.120;3.702;2023-03-20T13:37:58;13.00;99.90
25688;DHT22;17407;51.120;3.702;2023-03-20T13:40:29;12.90;99.90
25688;DHT22;17407;51.120;3.702;2023-03-20T13:43:23;12.90;99.90
25688;DHT22;17407;51.120;3.702;2023-03-20T13:45:55;12.90;99.90
25688;DHT22;17407;51.120;3.702;2023-03-20T13:51:20;12.80;99.90
25688;DHT22;17407;51.120;3.702;2023-03-20T14:05:20;13.10;99.90
25688;DHT22;17407;51.120;3.702;2023-03-20T14:07:48;13.20;99.90
25688;DHT22;17407;51.120;3.702;2023-03-20T14:13:00;13.10;99.90
25688;DHT22;17407;51.120;3.702;2023-03-20T14:15:36;13.00;99.90
25688;DHT22;17407;51.120;3.702;2023-03-20T14:18:05;13.00;99.90
25688;DHT22;17407;51.120;3.702;2023-03-20T14:20:38;12.90;99.90
25688;DHT22;17407;51.120;3.702;2023-03-20T14:23:05;13.00;99.90
25688;DHT22;17407;51.120;3.702;2023-03-20T14:25:39;13.00;99.90
25688;DHT22;17407;51.120;3.702;2023-03-20T14:30:41;13.00;99.90
25688;DHT22;17407;51.120;3.702;2023-03-20T14:35:47;13.30;99.90
25688;DHT22;17407;51.120;3.702;2023-03-20T14:40:56;13.40;99.90
25688;DHT22;17407;51.120;3.702;2023-03-20T14:47:16;13.60;99.90
25688;DHT22;17407;51.120;3.702;2023-03-20T14:52:52;13.50;99.90
25688;DHT22;17407;51.120;3.702;2023-03-20T14:57:45;13.30;99.90
25688;DHT22;17407;51.120;3.702;2023-03-20T15:00:34;13.30;99.90
25688;DHT22;17407;51.120;3.702;2023-03-20T15:03:13;13.40;99.90
25688;DHT22;17407;51.120;3.702;2023-03-20T15:05:40;13.40;99.90
25688;DHT22;17407;51.120;3.702;2023-03-20T15:08:21;13.50;99.90
25688;DHT22;17407;51.120;3.702;2023-03-20T15:10:51;13.50;99.90
25688;DHT22;17407;51.120;3.702;2023-03-20T15:13:18;13.60;99.90
25688;DHT22;17407;51.120;3.702;2023-03-20T15:16:02;13.50;99.90
25688;DHT22;17407;51.120;3.702;2023-03-20T15:18:28;13.20;99.90
25688;DHT22;17407;51.120;3.702;2023-03-20T15:20:55;13.10;99.90
25688;DHT22;17407;51.120;3.702;2023-03-20T15:23:22;13.30;99.90
25688;DHT22;17407;51.120;3.702;2023-03-20T15:25:48;13.40;99.90
25688;DHT22;17407;51.120;3.702;2023-03-20T15:28:21;13.40;99.90
25688;DHT22;17407;51.120;3.702;2023-03-20T15:30:49;13.50;99.90
25688;DHT22;17407;51.120;3.702;2023-03-20T15:33:38;13.60;99.90
25688;DHT22;17407;51.120;3.702;2023-03-20T15:36:14;13.70;99.90
25688;DHT22;17407;51.120;3.702;2023-03-20T15:38:41;13.60;99.90
25688;DHT22;17407;51.120;3.702;2023-03-20T15:41:32;13.50;99.90
25688;DHT22;17407;51.120;3.702;2023-03-20T15:46:40;13.40;99.90
25688;DHT22;17407;51.120;3.702;2023-03-20T15:49:18;13.30;99.90
25688;DHT22;17407;51.120;3.702;2023-03-20T15:51:45;13.20;99.90
25688;DHT22;17407;51.120;3.702;2023-03-20T15:54:13;13.20;99.90
25688;DHT22;17407;51.120;3.702;2023-03-20T15:56:45;13.30;99.90
25688;DHT22;17407;51.120;3.702;2023-03-20T15:59:20;13.20;99.90
25688;DHT22;17407;51.120;3.702;2023-03-20T16:01:49;13.00;99.90
25688;DHT22;17407;51.120;3.702;2023-03-20T16:04:16;13.00;99.90
25688;DHT22;17407;51.120;3.702;2023-03-20T16:06:55;13.10;99.90
25688;DHT22;17407;51.120;3.702;2023-03-20T16:09:21;13.10;99.90
25688;DHT22;17407;51.120;3.702;2023-03-20T16:11:55;13.10;99.90
25688;DHT22;17407;51.120;3.702;2023-03-20T16:14:24;13.20;99.90
25688;DHT22;17407;51.120;3.702;2023-03-20T16:16:53;13.20;99.90
25688;DHT22;17407;51.120;3.702;2023-03-20T16:19:20;13.30;99.90
25688;DHT22;17407;51.120;3.702;2023-03-20T16:21:52;13.30;99.90
25688;DHT22;17407;51.120;3.702;2023-03-20T16:24:21;13.30;99.90
25688;DHT22;17407;51.120;3.702;2023-03-20T16:26:51;12.90;99.90
25688;DHT22;17407;51.120;3.702;2023-03-20T16:29:18;12.70;99.90
25688;DHT22;17407;51.120;3.702;2023-03-20T16:31:55;12.80;99.90
25688;DHT22;17407;51.120;3.702;2023-03-20T16:34:25;13.00;99.90
25688;DHT22;17407;51.120;3.702;2023-03-20T16:37:00;13.00;99.90
25688;DHT22;17407;51.120;3.702;2023-03-20T16:39:29;13.00;99.90
25688;DHT22;17407;51.120;3.702;2023-03-20T16:44:32;13.00;99.90
25688;DHT22;17407;51.120;3.702;2023-03-20T16:52:25;13.00;99.90
25688;DHT22;17407;51.120;3.702;2023-03-20T16:54:52;12.90;99.90
25688;DHT22;17407;51.120;3.702;2023-03-20T16:57:20;12.90;99.90
25688;DHT22;17407;51.120;3.702;2023-03-20T16:59:46;13.10;99.90
25688;DHT22;17407;51.120;3.702;2023-03-20T17:02:23;13.00;99.90
25688;DHT22;17407;51.120;3.702;2023-03-20T17:04:54;13.10;99.90
25688;DHT22;17407;51.120;3.702;2023-03-20T17:07:21;13.00;99.90
25688;DHT22;17407;51.120;3.702;2023-03-20T17:12:46;13.10;99.90
25688;DHT22;17407;51.120;3.702;2023-03-20T17:15:18;13.10;99.90
25688;DHT22;17407;51.120;3.702;2023-03-20T17:17:44;13.10;99.90
25688;DHT22;17407;51.120;3.702;2023-03-20T17:20:22;13.00;99.90
25688;DHT22;17407;51.120;3.702;2023-03-20T17:22:48;13.00;99.90
25688;DHT22;17407;51.120;3.702;2023-03-20T17:25:14;13.10;99.90
25688;DHT22;17407;51.120;3.702;2023-03-20T17:27:40;13.10;99.90
25688;DHT22;17407;51.120;3.702;2023-03-20T17:30:13;13.00;99.90
25688;DHT22;17407;51.120;3.702;2023-03-20T17:32:40;12.80;99.90
25688;DHT22;17407;51.120;3.702;2023-03-20T17:35:06;12.80;99.90
25688;DHT22;17407;51.120;3.702;2023-03-20T17:37:32;12.80;99.90
25688;DHT22;17407;51.120;3.702;2023-03-20T17:39:58;12.70;99.90
25688;DHT22;17407;51.120;3.702;2023-03-20T17:42:26;12.70;99.90
25688;DHT22;17407;51.120;3.702;2023-03-20T17:44:56;12.50;99.90
25688;DHT22;17407;51.120;3.702;2023-03-20T17:47:24;12.40;99.90
25688;DHT22;17407;51.120;3.702;2023-03-20T17:49:51;12.50;99.90
25688;DHT22;17407;51.120;3.702;2023-03-20T17:52:21;12.60;99.90
25688;DHT22;17407;51.120;3.702;2023-03-20T17:54:46;12.80;99.90
25688;DHT22;17407;51.120;3.702;2023-03-20T17:59:48;12.90;99.90
25688;DHT22;17407;51.120;3.702;2023-03-20T18:02:17;12.60;99.90
25688;DHT22;17407;51.120;3.702;2023-03-20T18:04:44;12.50;99.90
25688;DHT22;17407;51.120;3.702;2023-03-20T18:07:10;12.50;99.90
25688;DHT22;17407;51.120;3.702;2023-03-20T18:09:37;12.40;99.90
25688;DHT22;17407;51.120;3.702;2023-03-20T18:12:03;12.40;99.90
25688;DHT22;17407;51.120;3.702;2023-03-20T18:14:29;12.30;99.90
25688;DHT22;17407;51.120;3.702;2023-03-20T18:16:55;12.30;99.90
25688;DHT22;17407;51.120;3.702;2023-03-20T18:19:26;12.30;99.90
25688;DHT22;17407;51.120;3.702;2023-03-20T18:21:56;12.40;99.90
25688;DHT22;17407;51.120;3.702;2023-03-20T18:24:22;12.30;99.90
25688;DHT22;17407;51.120;3.702;2023-03-20T18:26:48;12.20;99.90
25688;DHT22;17407;51.120;3.702;2023-03-20T18:29:15;12.30;99.90
25688;DHT22;17407;51.120;3.702;2023-03-20T18:31:41;12.30;99.90
25688;DHT22;17407;51.120;3.702;2023-03-20T18:34:07;12.40;99.90
25688;DHT22;17407;51.120;3.702;2023-03-20T18:36:33;12.30;99.90
25688;DHT22;17407;51.120;3.702;2023-03-20T18:38:59;12.50;99.90
25688;DHT22;17407;51.120;3.702;2023-03-20T18:41:24;12.50;99.90
25688;DHT22;17407;51.120;3.702;2023-03-20T18:43:51;12.50;99.90
25688;DHT22;17407;51.120;3.702;2023-03-20T18:46:22;12.50;99.90